Flight Track Log - Related Links

Times and Time Zones

All times are in EDT time to prevent confusion due to time zone crossing. See the ASQ5958 flight status page for this flight to view local times or setup timezone preferences in your user account.

Time Position Orientation Groundspeed Altitude Reporting Facility
EDT Latitude Longitude Course Direction KTS MPH feet Rate Location/Type
Wed 12:18:46 PM 43.1006 -76.0889 286° West 162 186 1,100  Level Boston Center
Wed 12:19:10 PM 43.0864 -76.0736 142° Southeast 171 197 2,000 2,118 Climbing Boston Center
Wed 12:20:11 PM 43.0617 -76.1378 242° Southwest 236 272 4,100 1,868 Climbing Boston Center
Wed 12:21:57 PM 43.1322 -76.2672 307° West 272 313 7,200 1,952 Climbing Cleveland Center
Wed 12:22:57 PM 43.1750 -76.3553 304° West 277 319 9,500 1,650 Climbing Cleveland Center
Wed 12:23:57 PM 43.1731 -76.4722 269° West 278 320 10,500 900 Climbing Cleveland Center
Wed 12:24:00 PM 43.2483 -76.7638 286° West  Level FlightAware Approximate
Wed 12:24:57 PM 43.1692 -76.6064 268° West 326 375 11,300  Level Cleveland Center
Wed 12:25:57 PM 43.1700 -76.7486 271° West 356 410 12,400 1,300 Climbing Cleveland Center
Wed 12:26:57 PM 43.1683 -76.8911 269° West 374 430 13,900 1,450 Climbing Cleveland Center
Wed 12:27:57 PM 43.1667 -77.0364 269° West 384 442 15,300 1,350 Climbing Cleveland Center
Wed 12:28:57 PM 43.1772 -77.1811 276° West 384 442 16,600 1,300 Climbing Cleveland Center
Wed 12:29:57 PM 43.2000 -77.3250 282° West 384 442 17,900 1,300 Climbing Cleveland Center
Wed 12:30:57 PM 43.2083 -77.4700 275° West 390 449 19,200 1,300 Climbing Cleveland Center
Wed 12:31:57 PM 43.2142 -77.6178 273° West 390 449 20,500 1,350 Climbing Cleveland Center
Wed 12:32:57 PM 43.2075 -77.7661 267° West 385 443 21,900 1,350 Climbing Cleveland Center
Wed 12:33:57 PM 43.2047 -77.9172 269° West 390 449 23,200 1,150 Climbing Cleveland Center
Wed 12:34:57 PM 43.1958 -78.0772 266° West 401 461 24,200 1,150 Climbing Cleveland Center
Wed 12:35:57 PM 43.1886 -78.2283 266° West 408 470 25,500 1,200 Climbing Cleveland Center
Wed 12:36:57 PM 43.1814 -78.3967 267° West 418 481 26,600 1,200 Climbing Cleveland Center
Wed 12:37:57 PM 43.1764 -78.5706 268° West 425 489 27,900 1,200 Climbing Cleveland Center
Wed 12:38:57 PM 43.1706 -78.7217 267° West 419 482 29,000 1,200 Climbing Cleveland Center
Wed 12:39:57 PM 43.1625 -78.8783 266° West 419 482 30,300 1,229 Climbing Cleveland Center
Wed 12:40:20 PM 43.1500 -78.9000 232° Southwest 410 472 30,700 1,012 Climbing Toronto Center
Wed 12:41:20 PM 43.1500 -79.0667 270° West 410 472 31,700 950 Climbing Toronto Center
Wed 12:42:20 PM 43.1333 -79.2167 261° West 410 472 32,600 900 Climbing Toronto Center
Wed 12:43:20 PM 43.1333 -79.3833 270° West 420 483 33,500 700 Climbing Toronto Center
Wed 12:44:20 PM 43.1833 -79.5333 295° West 430 495 34,000 250 Climbing Toronto Center
Wed 12:45:20 PM 43.2500 -79.6500 308° West 450 518 34,000  Level Toronto Center
Wed 12:46:20 PM 43.3333 -79.8000 307° West 460 529 34,000 250 Level Toronto Center
Wed 12:47:20 PM 43.4167 -79.9333 311° West 460 529 34,500 800 Climbing Toronto Center
Wed 12:48:20 PM 43.5167 -80.0667 316° Northwest 460 529 35,600 744 Climbing Toronto Center
Wed 12:49:21 PM 43.5500 -80.2000 289° West 440 506 36,000 200 Climbing Toronto Center
Wed 12:50:20 PM 43.5333 -80.3667 262° West 430 495 36,000  Level Toronto Center
Wed 12:51:20 PM 43.5000 -80.5333 255° West 410 472 36,000  Level Toronto Center
Wed 12:52:20 PM 43.4833 -80.6833 261° West 410 472 36,000  Level Toronto Center
Wed 12:53:20 PM 43.4333 -80.8333 245° Southwest 420 483 36,000  Level Toronto Center
Wed 12:54:21 PM 43.4167 -81.0167 263° West 440 506 36,000  Level Toronto Center
Wed 12:55:20 PM 43.4000 -81.1667 261° West 450 518 36,000  Level Toronto Center
Wed 12:56:20 PM 43.3667 -81.3500 256° West 440 506 36,000  Level Toronto Center
Wed 12:57:20 PM 43.3500 -81.5167 262° West 440 506 36,000  Level Toronto Center
Wed 12:58:20 PM 43.3167 -81.6667 253° West 450 518 36,000  Level Toronto Center
Wed 12:59:20 PM 43.3000 -81.8333 262° West 450 518 36,000  Level Toronto Center
Wed 01:00:20 PM 43.2500 -82.0167 250° West 450 518 36,000  Level Toronto Center
Wed 01:01:20 PM 43.2333 -82.1667 261° West 450 518 36,000  Level Toronto Center
Wed 01:02:20 PM 43.2000 -82.3333 255° West 440 506 36,000  Level Toronto Center
Wed 01:03:20 PM 43.1833 -82.4833 261° West 440 506 36,000  Level Toronto Center
Wed 01:04:20 PM 43.1333 -82.6667 250° West 450 518 36,000  Level Toronto Center
Wed 01:04:45 PM 43.1442 -82.7486 280° West 450 518 36,000  Level Cleveland Center
Wed 01:05:45 PM 43.1161 -82.9181 257° West 455 524 36,000  Level Cleveland Center
Wed 01:06:45 PM 43.0831 -83.0931 256° West 462 532 36,000  Level Cleveland Center
Wed 01:07:45 PM 43.0564 -83.2597 258° West 462 532 36,000  Level Cleveland Center
Wed 01:08:45 PM 43.0256 -83.4203 255° West 462 532 36,000  Level Cleveland Center
Wed 01:09:45 PM 42.9964 -83.5836 256° West 452 520 36,000  Level Cleveland Center
Wed 01:10:45 PM 42.9650 -83.7497 256° West 452 520 36,000  Level Cleveland Center
Wed 01:11:45 PM 42.9500 -83.9106 263° West 447 514 36,000 -250 Level Cleveland Center
Wed 01:12:45 PM 42.9328 -84.0686 262° West 442 509 35,500 -950 Descending Cleveland Center
Wed 01:13:45 PM 42.9172 -84.2322 263° West 442 509 34,100 -1,600 Descending Cleveland Center
Wed 01:14:45 PM 42.9017 -84.3900 262° West 442 509 32,300 -1,319 Descending Cleveland Center
Wed 01:15:16 PM 42.8961 -84.4600 264° West 434 499 32,100 -194 Descending Chicago Center
Wed 01:16:18 PM 42.8797 -84.6228 262° West 435 501 32,000 -48 Descending Chicago Center
Wed 01:17:20 PM 42.8633 -84.7839 262° West 432 497 32,000  Level Chicago Center
Wed 01:18:22 PM 42.8456 -84.9467 262° West 434 499 32,000  Level Chicago Center
Wed 01:19:24 PM 42.8253 -85.1436 262° West 437 503 32,000  Level Chicago Center
Wed 01:20:26 PM 42.8067 -85.3100 261° West 443 510 32,000  Level Chicago Center
Wed 01:21:28 PM 42.7881 -85.4761 261° West 444 511 32,000  Level Chicago Center
Wed 01:22:30 PM 42.7606 -85.6417 257° West 447 514 32,000 -339 Level Chicago Center
Wed 01:23:32 PM 42.7308 -85.8061 256° West 445 512 31,300 -1,500 Descending Chicago Center
Wed 01:24:34 PM 42.7014 -85.9667 256° West 437 503 28,900 -2,419 Descending Chicago Center
Wed 01:25:36 PM 42.6719 -86.1281 256° West 437 503 26,300 -2,758 Descending Chicago Center
Wed 01:26:38 PM 42.6361 -86.3233 256° West 441 507 23,200 -2,855 Descending Chicago Center
Wed 01:27:40 PM 42.6069 -86.4778 256° West 429 494 20,400 -2,640 Descending Chicago Center
Wed 01:28:43 PM 42.5778 -86.6303 255° West 419 482 17,700 -2,496 Descending Chicago Center
Wed 01:29:45 PM 42.5481 -86.7775 255° West 408 470 15,200 -2,468 Descending Chicago Center
Wed 01:30:47 PM 42.5103 -86.9125 249° West 388 447 12,600 -2,323 Descending Chicago Center
Wed 01:31:49 PM 42.4756 -87.0397 250° West 366 421 10,400 -1,548 Descending Chicago Center
Wed 01:32:51 PM 42.4381 -87.1711 249° West 315 362 9,400 -1,258 Descending Chicago Center
Wed 01:33:53 PM 42.4125 -87.2661 250° West 279 321 7,800 -1,500 Descending Chicago Center
Wed 01:34:55 PM 42.3556 -87.3219 216° Southwest 272 313 6,300 -871 Descending Chicago Center
Wed 01:35:57 PM 42.2886 -87.3494 197° South 254 292 6,000 -484 Descending Chicago Center
Wed 01:36:59 PM 42.2194 -87.3775 197° South 257 296 5,300 -484 Descending Chicago Center
Wed 01:38:01 PM 42.1378 -87.4114 197° South 259 298 5,000 -161 Descending Chicago Center
Wed 01:38:51 PM 42.0833 -87.4333 197° South 226 260 5,000 -491 Level Chicago TRACON
Wed 01:39:51 PM 42.0500 -87.5000 236° Southwest 233 268 4,100 -526 Descending Chicago TRACON
Wed 01:40:45 PM 42.0167 -87.5500 228° Southwest 221 254 4,000 -50 Descending Chicago TRACON
Wed 01:41:51 PM 42.0000 -87.6500 257° West 227 261 4,000 -476 Level Chicago TRACON
Wed 01:42:51 PM 42.0000 -87.7333 270° West 225 259 3,000 -1,000 Descending Chicago TRACON
Wed 01:43:45 PM 42.0000 -87.8000 270° West 204 235 2,100 -895 Descending Chicago TRACON
Wed 01:44:45 PM 42.0000 -87.8667 270° West 149 171 1,300 -800 Descending Chicago TRACON
Wed 01:47:00 PM 41.9667 -87.9000 217° Southwest  Level FlightAware Approximate

Login

Don't have an account? Register now (free) for customized features, flight alerts, and more!